sensor_id;sensor_type;location;lat;lon;timestamp;pressure;altitude;pressure_sealevel;temperature;humidity
40708;BME280;26392;42.696;23.350;2023-03-12T00:00:47;94410.59;;;2.81;100.00
40708;BME280;26392;42.696;23.350;2023-03-12T00:03:13;94420.66;;;2.85;99.90
40708;BME280;26392;42.696;23.350;2023-03-12T00:05:40;94428.72;;;2.85;100.00
40708;BME280;26392;42.696;23.350;2023-03-12T00:08:06;94420.28;;;2.82;100.00
40708;BME280;26392;42.696;23.350;2023-03-12T00:10:32;94433.06;;;2.86;99.62
40708;BME280;26392;42.696;23.350;2023-03-12T00:12:57;94437.84;;;2.84;99.42
40708;BME280;26392;42.696;23.350;2023-03-12T00:15:23;94440.31;;;2.86;99.36
40708;BME280;26392;42.696;23.350;2023-03-12T00:17:49;94448.41;;;2.86;100.00
40708;BME280;26392;42.696;23.350;2023-03-12T00:20:15;94443.91;;;2.80;100.00
40708;BME280;26392;42.696;23.350;2023-03-12T00:22:40;94449.28;;;2.80;100.00
40708;BME280;26392;42.696;23.350;2023-03-12T00:25:10;94463.47;;;2.87;98.98
40708;BME280;26392;42.696;23.350;2023-03-12T00:27:36;94464.75;;;2.84;97.15
40708;BME280;26392;42.696;23.350;2023-03-12T00:30:02;94468.72;;;2.82;98.11
40708;BME280;26392;42.696;23.350;2023-03-12T00:32:28;94469.53;;;2.82;97.04
40708;BME280;26392;42.696;23.350;2023-03-12T00:34:54;94474.44;;;2.85;98.11
40708;BME280;26392;42.696;23.350;2023-03-12T00:37:20;94474.69;;;2.84;97.45
40708;BME280;26392;42.696;23.350;2023-03-12T00:39:46;94457.81;;;2.77;95.95
40708;BME280;26392;42.696;23.350;2023-03-12T00:42:11;94470.69;;;2.75;96.83
40708;BME280;26392;42.696;23.350;2023-03-12T00:44:36;94470.59;;;2.81;96.72
40708;BME280;26392;42.696;23.350;2023-03-12T00:47:02;94461.78;;;2.74;96.38
40708;BME280;26392;42.696;23.350;2023-03-12T00:49:28;94472.78;;;2.73;96.42
40708;BME280;26392;42.696;23.350;2023-03-12T00:51:53;94477.09;;;2.74;97.16
40708;BME280;26392;42.696;23.350;2023-03-12T00:54:19;94474.41;;;2.74;98.06
40708;BME280;26392;42.696;23.350;2023-03-12T00:56:45;94475.78;;;2.64;98.54
40708;BME280;26392;42.696;23.350;2023-03-12T00:59:11;94476.59;;;2.65;99.10
40708;BME280;26392;42.696;23.350;2023-03-12T01:01:37;94478.69;;;2.63;99.47
40708;BME280;26392;42.696;23.350;2023-03-12T01:04:03;94481.00;;;2.59;100.00
40708;BME280;26392;42.696;23.350;2023-03-12T01:06:28;94492.81;;;2.58;100.00
40708;BME280;26392;42.696;23.350;2023-03-12T01:08:53;94481.00;;;2.59;100.00
40708;BME280;26392;42.696;23.350;2023-03-12T01:11:20;94474.00;;;2.58;99.78
40708;BME280;26392;42.696;23.350;2023-03-12T01:13:45;94478.31;;;2.59;100.00
40708;BME280;26392;42.696;23.350;2023-03-12T01:16:11;94489.31;;;2.58;100.00
40708;BME280;26392;42.696;23.350;2023-03-12T01:18:36;94488.34;;;2.52;100.00
40708;BME280;26392;42.696;23.350;2023-03-12T01:21:02;94492.66;;;2.53;100.00
40708;BME280;26392;42.696;23.350;2023-03-12T01:23:28;94487.97;;;2.49;99.88
40708;BME280;26392;42.696;23.350;2023-03-12T01:25:54;94491.25;;;2.51;99.65
40708;BME280;26392;42.696;23.350;2023-03-12T01:28:24;94497.38;;;2.39;100.00
40708;BME280;26392;42.696;23.350;2023-03-12T01:30:50;94493.50;;;2.35;99.90
40708;BME280;26392;42.696;23.350;2023-03-12T01:33:15;94498.03;;;2.35;100.00
40708;BME280;26392;42.696;23.350;2023-03-12T01:35:41;94498.03;;;2.35;100.00
40708;BME280;26392;42.696;23.350;2023-03-12T01:38:12;94496.78;;;2.37;100.00
40708;BME280;26392;42.696;23.350;2023-03-12T01:40:38;94494.91;;;2.38;100.00
40708;BME280;26392;42.696;23.350;2023-03-12T01:43:30;94496.78;;;2.37;99.90
40708;BME280;26392;42.696;23.350;2023-03-12T01:46:31;94492.09;;;2.33;99.86
40708;BME280;26392;42.696;23.350;2023-03-12T01:51:42;94494.16;;;2.31;100.00
40708;BME280;26392;42.696;23.350;2023-03-12T01:55:00;94498.56;;;2.25;100.00
40708;BME280;26392;42.696;23.350;2023-03-12T01:57:02;94498.94;;;2.29;100.00
40708;BME280;26392;42.696;23.350;2023-03-12T01:59:38;94507.00;;;2.29;100.00
40708;BME280;26392;42.696;23.350;2023-03-12T02:02:07;94507.25;;;2.27;100.00
40708;BME280;26392;42.696;23.350;2023-03-12T02:04:35;94506.34;;;2.33;100.00
40708;BME280;26392;42.696;23.350;2023-03-12T02:07:15;94506.19;;;2.28;100.00
40708;BME280;26392;42.696;23.350;2023-03-12T02:09:44;94518.56;;;2.29;100.00
40708;BME280;26392;42.696;23.350;2023-03-12T02:12:10;94513.81;;;2.31;100.00
40708;BME280;26392;42.696;23.350;2023-03-12T02:14:36;94504.91;;;2.31;100.00
40708;BME280;26392;42.696;23.350;2023-03-12T02:17:02;94506.56;;;2.32;100.00
40708;BME280;26392;42.696;23.350;2023-03-12T02:22:37;94510.50;;;2.29;99.32
40708;BME280;26392;42.696;23.350;2023-03-12T02:25:27;94514.25;;;2.28;99.73
40708;BME280;26392;42.696;23.350;2023-03-12T02:27:57;94515.16;;;2.22;99.03
40708;BME280;26392;42.696;23.350;2023-03-12T02:30:23;94509.00;;;2.15;99.99
40708;BME280;26392;42.696;23.350;2023-03-12T02:32:49;94524.63;;;2.24;100.00
40708;BME280;26392;42.696;23.350;2023-03-12T02:35:16;94534.97;;;2.21;100.00
40708;BME280;26392;42.696;23.350;2023-03-12T02:37:49;94533.34;;;2.20;100.00
40708;BME280;26392;42.696;23.350;2023-03-12T02:42:49;94522.69;;;2.13;100.00
40708;BME280;26392;42.696;23.350;2023-03-12T02:45:14;94517.97;;;2.09;100.00
40708;BME280;26392;42.696;23.350;2023-03-12T02:47:40;94511.53;;;2.10;100.00
40708;BME280;26392;42.696;23.350;2023-03-12T02:50:05;94511.31;;;2.11;100.00
40708;BME280;26392;42.696;23.350;2023-03-12T02:52:31;94517.34;;;2.07;100.00
40708;BME280;26392;42.696;23.350;2023-03-12T02:55:00;94523.16;;;2.04;100.00
40708;BME280;26392;42.696;23.350;2023-03-12T02:57:25;94515.94;;;2.04;100.00
40708;BME280;26392;42.696;23.350;2023-03-12T02:59:50;94511.41;;;2.05;100.00
40708;BME280;26392;42.696;23.350;2023-03-12T03:02:16;94515.34;;;2.02;100.00
40708;BME280;26392;42.696;23.350;2023-03-12T03:04:41;94509.81;;;1.97;100.00
40708;BME280;26392;42.696;23.350;2023-03-12T03:07:06;94486.97;;;1.88;100.00
40708;BME280;26392;42.696;23.350;2023-03-12T03:09:32;94496.44;;;1.90;100.00
40708;BME280;26392;42.696;23.350;2023-03-12T03:11:57;94486.13;;;1.87;100.00
40708;BME280;26392;42.696;23.350;2023-03-12T03:14:23;94468.66;;;1.78;100.00
40708;BME280;26392;42.696;23.350;2023-03-12T03:16:48;94506.06;;;1.79;100.00
40708;BME280;26392;42.696;23.350;2023-03-12T03:19:14;94521.50;;;1.84;100.00
40708;BME280;26392;42.696;23.350;2023-03-12T03:21:40;94524.63;;;1.81;100.00
40708;BME280;26392;42.696;23.350;2023-03-12T03:24:05;94530.59;;;1.83;100.00
40708;BME280;26392;42.696;23.350;2023-03-12T03:26:31;94541.72;;;1.87;100.00
40708;BME280;26392;42.696;23.350;2023-03-12T03:28:56;94533.66;;;1.87;100.00
40708;BME280;26392;42.696;23.350;2023-03-12T03:31:22;94542.41;;;1.82;100.00
40708;BME280;26392;42.696;23.350;2023-03-12T03:33:48;94535.97;;;1.83;100.00
40708;BME280;26392;42.696;23.350;2023-03-12T03:36:14;94538.66;;;1.83;100.00
40708;BME280;26392;42.696;23.350;2023-03-12T03:38:40;94542.78;;;1.86;100.00
40708;BME280;26392;42.696;23.350;2023-03-12T03:41:05;94537.03;;;1.82;100.00
40708;BME280;26392;42.696;23.350;2023-03-12T03:43:31;94538.50;;;1.78;100.00
40708;BME280;26392;42.696;23.350;2023-03-12T03:46:02;94547.16;;;1.80;100.00
40708;BME280;26392;42.696;23.350;2023-03-12T03:48:28;94548.03;;;1.74;100.00
40708;BME280;26392;42.696;23.350;2023-03-12T03:50:54;94546.19;;;1.68;100.00
40708;BME280;26392;42.696;23.350;2023-03-12T03:53:23;94546.44;;;1.66;100.00
40708;BME280;26392;42.696;23.350;2023-03-12T03:55:48;94559.19;;;1.71;100.00
40708;BME280;26392;42.696;23.350;2023-03-12T03:58:14;94552.47;;;1.62;100.00
40708;BME280;26392;42.696;23.350;2023-03-12T04:00:43;94553.50;;;1.61;100.00
40708;BME280;26392;42.696;23.350;2023-03-12T04:03:08;94554.97;;;1.56;100.00
40708;BME280;26392;42.696;23.350;2023-03-12T04:05:34;94561.13;;;1.64;100.00
40708;BME280;26392;42.696;23.350;2023-03-12T04:07:59;94554.53;;;1.60;100.00
40708;BME280;26392;42.696;23.350;2023-03-12T04:10:28;94567.13;;;1.59;100.00
40708;BME280;26392;42.696;23.350;2023-03-12T04:12:54;94569.66;;;1.54;100.00
40708;BME280;26392;42.696;23.350;2023-03-12T04:15:20;94576.50;;;1.50;100.00
40708;BME280;26392;42.696;23.350;2023-03-12T04:17:45;94573.63;;;1.51;100.00
40708;BME280;26392;42.696;23.350;2023-03-12T04:20:11;94576.88;;;1.53;100.00
40708;BME280;26392;42.696;23.350;2023-03-12T04:22:36;94590.97;;;1.49;97.17
40708;BME280;26392;42.696;23.350;2023-03-12T04:25:03;94588.88;;;1.51;97.99
40708;BME280;26392;42.696;23.350;2023-03-12T04:27:28;94590.97;;;1.49;97.79
40708;BME280;26392;42.696;23.350;2023-03-12T04:29:54;94603.72;;;1.53;97.21
40708;BME280;26392;42.696;23.350;2023-03-12T04:32:19;94602.53;;;1.49;95.80
40708;BME280;26392;42.696;23.350;2023-03-12T04:34:45;94611.84;;;1.47;94.67
40708;BME280;26392;42.696;23.350;2023-03-12T04:37:10;94621.75;;;1.46;93.52
40708;BME280;26392;42.696;23.350;2023-03-12T04:39:38;94619.06;;;1.46;93.69
40708;BME280;26392;42.696;23.350;2023-03-12T04:42:04;94624.25;;;1.41;93.41
40708;BME280;26392;42.696;23.350;2023-03-12T04:44:30;94626.31;;;1.39;91.32
40708;BME280;26392;42.696;23.350;2023-03-12T04:46:55;94623.25;;;1.36;90.28
40708;BME280;26392;42.696;23.350;2023-03-12T04:49:21;94630.94;;;1.32;90.08
40708;BME280;26392;42.696;23.350;2023-03-12T04:51:46;94645.16;;;1.32;90.13
40708;BME280;26392;42.696;23.350;2023-03-12T04:54:12;94639.78;;;1.32;89.90
40708;BME280;26392;42.696;23.350;2023-03-12T04:56:37;94641.84;;;1.30;90.55
40708;BME280;26392;42.696;23.350;2023-03-12T04:59:04;94651.78;;;1.30;90.37
40708;BME280;26392;42.696;23.350;2023-03-12T05:01:32;94650.34;;;1.27;89.90
40708;BME280;26392;42.696;23.350;2023-03-12T05:03:58;94659.63;;;1.25;89.95
40708;BME280;26392;42.696;23.350;2023-03-12T05:06:24;94666.88;;;1.24;90.44
40708;BME280;26392;42.696;23.350;2023-03-12T05:08:50;94667.69;;;1.25;90.71
40708;BME280;26392;42.696;23.350;2023-03-12T05:11:16;94674.69;;;1.26;90.22
40708;BME280;26392;42.696;23.350;2023-03-12T05:13:42;94667.06;;;1.23;91.18
40708;BME280;26392;42.696;23.350;2023-03-12T05:16:08;94669.94;;;1.28;90.53
40708;BME280;26392;42.696;23.350;2023-03-12T05:18:34;94679.22;;;1.32;91.42
40708;BME280;26392;42.696;23.350;2023-03-12T05:21:08;94694.50;;;1.31;91.92
40708;BME280;26392;42.696;23.350;2023-03-12T05:23:34;94681.50;;;1.35;91.50
40708;BME280;26392;42.696;23.350;2023-03-12T05:26:00;94684.56;;;1.39;90.99
40708;BME280;26392;42.696;23.350;2023-03-12T05:28:26;94693.66;;;1.38;91.05
40708;BME280;26392;42.696;23.350;2023-03-12T05:31:08;94701.25;;;1.47;91.36
40708;BME280;26392;42.696;23.350;2023-03-12T05:33:34;94697.09;;;1.51;91.64
40708;BME280;26392;42.696;23.350;2023-03-12T05:35:59;94683.94;;;1.43;90.84
40708;BME280;26392;42.696;23.350;2023-03-12T05:38:25;94698.94;;;1.58;90.80
40708;BME280;26392;42.696;23.350;2023-03-12T05:40:55;94687.38;;;1.57;90.77
40708;BME280;26392;42.696;23.350;2023-03-12T05:43:21;94706.06;;;1.70;90.09
40708;BME280;26392;42.696;23.350;2023-03-12T05:45:48;94716.00;;;1.70;90.50
40708;BME280;26392;42.696;23.350;2023-03-12T05:48:14;94722.75;;;1.79;90.05
40708;BME280;26392;42.696;23.350;2023-03-12T05:50:39;94717.81;;;1.76;87.91
40708;BME280;26392;42.696;23.350;2023-03-12T05:53:05;94717.00;;;1.82;88.85
40708;BME280;26392;42.696;23.350;2023-03-12T05:55:34;94722.25;;;2.02;88.50
40708;BME280;26392;42.696;23.350;2023-03-12T05:57:59;94720.69;;;2.13;86.94
40708;BME280;26392;42.696;23.350;2023-03-12T06:00:25;94737.78;;;2.25;84.88
40708;BME280;26392;42.696;23.350;2023-03-12T06:02:50;94732.97;;;2.34;80.40
40708;BME280;26392;42.696;23.350;2023-03-12T06:05:16;94749.03;;;2.40;77.01
40708;BME280;26392;42.696;23.350;2023-03-12T06:07:41;94752.41;;;2.36;73.75
40708;BME280;26392;42.696;23.350;2023-03-12T06:10:07;94750.34;;;2.31;70.78
40708;BME280;26392;42.696;23.350;2023-03-12T06:12:32;94752.44;;;2.29;68.13
40708;BME280;26392;42.696;23.350;2023-03-12T06:14:58;94755.56;;;2.26;68.24
40708;BME280;26392;42.696;23.350;2023-03-12T06:17:23;94761.53;;;2.28;67.90
40708;BME280;26392;42.696;23.350;2023-03-12T06:19:52;94765.44;;;2.32;67.66
40708;BME280;26392;42.696;23.350;2023-03-12T06:22:18;94766.34;;;2.51;67.40
40708;BME280;26392;42.696;23.350;2023-03-12T06:24:43;94771.25;;;2.61;67.73
40708;BME280;26392;42.696;23.350;2023-03-12T06:27:14;94785.34;;;2.56;63.53
40708;BME280;26392;42.696;23.350;2023-03-12T06:29:39;94779.59;;;2.53;67.29
40708;BME280;26392;42.696;23.350;2023-03-12T06:32:05;94799.25;;;2.78;68.03
40708;BME280;26392;42.696;23.350;2023-03-12T06:34:31;94799.34;;;2.90;63.47
40708;BME280;26392;42.696;23.350;2023-03-12T06:36:57;94782.72;;;2.50;63.04
40708;BME280;26392;42.696;23.350;2023-03-12T06:39:23;94797.16;;;2.55;63.93
40708;BME280;26392;42.696;23.350;2023-03-12T06:41:49;94795.53;;;2.47;65.47
40708;BME280;26392;42.696;23.350;2023-03-12T06:44:14;94805.69;;;2.45;65.54
40708;BME280;26392;42.696;23.350;2023-03-12T06:46:40;94808.97;;;2.47;67.01
40708;BME280;26392;42.696;23.350;2023-03-12T06:49:06;94811.41;;;2.56;64.51
40708;BME280;26392;42.696;23.350;2023-03-12T06:51:31;94816.34;;;2.59;64.52
40708;BME280;26392;42.696;23.350;2023-03-12T06:53:56;94818.44;;;2.57;62.09
40708;BME280;26392;42.696;23.350;2023-03-12T06:56:22;94816.53;;;2.64;62.94
40708;BME280;26392;42.696;23.350;2023-03-12T06:58:47;94831.34;;;2.73;60.43
40708;BME280;26392;42.696;23.350;2023-03-12T07:01:13;94830.28;;;2.81;60.74
40708;BME280;26392;42.696;23.350;2023-03-12T07:03:38;94828.66;;;2.73;58.36
40708;BME280;26392;42.696;23.350;2023-03-12T07:06:04;94833.66;;;2.69;58.23
40708;BME280;26392;42.696;23.350;2023-03-12T07:08:36;94836.19;;;2.64;57.92
40708;BME280;26392;42.696;23.350;2023-03-12T07:11:01;94849.19;;;2.67;58.16
40708;BME280;26392;42.696;23.350;2023-03-12T07:13:28;94863.03;;;2.71;58.78
40708;BME280;26392;42.696;23.350;2023-03-12T07:15:53;94850.19;;;2.73;58.62
40708;BME280;26392;42.696;23.350;2023-03-12T07:18:19;94854.38;;;2.69;58.00
40708;BME280;26392;42.696;23.350;2023-03-12T07:20:44;94843.16;;;2.72;58.39
40708;BME280;26392;42.696;23.350;2023-03-12T07:23:11;94845.34;;;2.82;58.52
40708;BME280;26392;42.696;23.350;2023-03-12T07:25:39;94862.84;;;2.98;59.59
40708;BME280;26392;42.696;23.350;2023-03-12T07:28:06;94865.31;;;2.99;59.65
40708;BME280;26392;42.696;23.350;2023-03-12T07:30:32;94881.34;;;3.12;59.66
40708;BME280;26392;42.696;23.350;2023-03-12T07:33:02;94865.53;;;2.98;58.64
40708;BME280;26392;42.696;23.350;2023-03-12T07:35:28;94868.41;;;3.03;59.26
40708;BME280;26392;42.696;23.350;2023-03-12T07:37:53;94870.22;;;3.09;59.47
40708;BME280;26392;42.696;23.350;2023-03-12T07:40:19;94873.94;;;3.08;59.63
40708;BME280;26392;42.696;23.350;2023-03-12T07:42:44;94864.31;;;3.19;59.91
40708;BME280;26392;42.696;23.350;2023-03-12T07:45:10;94866.69;;;3.33;60.31
40708;BME280;26392;42.696;23.350;2023-03-12T07:47:35;94856.91;;;3.39;58.30
40708;BME280;26392;42.696;23.350;2023-03-12T07:50:01;94870.09;;;3.22;56.32
40708;BME280;26392;42.696;23.350;2023-03-12T07:52:27;94879.22;;;3.21;57.00
40708;BME280;26392;42.696;23.350;2023-03-12T07:54:52;94902.78;;;3.26;56.71
40708;BME280;26392;42.696;23.350;2023-03-12T07:57:20;94896.63;;;3.19;56.20
40708;BME280;26392;42.696;23.350;2023-03-12T07:59:46;94887.84;;;3.30;56.70
40708;BME280;26392;42.696;23.350;2023-03-12T08:02:12;94882.06;;;3.26;55.39
40708;BME280;26392;42.696;23.350;2023-03-12T08:04:37;94892.84;;;3.26;54.39
40708;BME280;26392;42.696;23.350;2023-03-12T08:07:03;94890.53;;;3.30;54.90
40708;BME280;26392;42.696;23.350;2023-03-12T08:09:28;94895.63;;;3.38;55.79
40708;BME280;26392;42.696;23.350;2023-03-12T08:11:54;94892.03;;;3.26;55.30
40708;BME280;26392;42.696;23.350;2023-03-12T08:14:19;94901.84;;;3.39;55.69
40708;BME280;26392;42.696;23.350;2023-03-12T08:16:45;94912.47;;;3.33;55.64
40708;BME280;26392;42.696;23.350;2023-03-12T08:19:10;94933.56;;;3.36;54.00
40708;BME280;26392;42.696;23.350;2023-03-12T08:21:35;94909.19;;;3.25;54.90
40708;BME280;26392;42.696;23.350;2023-03-12T08:24:01;94923.59;;;3.12;55.23
40708;BME280;26392;42.696;23.350;2023-03-12T08:26:26;94922.09;;;3.16;56.69
40708;BME280;26392;42.696;23.350;2023-03-12T08:28:52;94914.75;;;3.30;54.74
40708;BME280;26392;42.696;23.350;2023-03-12T08:31:17;94903.94;;;3.36;54.73
40708;BME280;26392;42.696;23.350;2023-03-12T08:33:43;94918.63;;;3.41;54.87
40708;BME280;26392;42.696;23.350;2023-03-12T08:36:09;94927.03;;;3.51;55.08
40708;BME280;26392;42.696;23.350;2023-03-12T08:38:35;94922.44;;;3.76;55.84
40708;BME280;26392;42.696;23.350;2023-03-12T08:41:00;94914.50;;;3.81;55.02
40708;BME280;26392;42.696;23.350;2023-03-12T08:43:27;94933.53;;;4.05;54.23
40708;BME280;26392;42.696;23.350;2023-03-12T08:45:59;94921.50;;;4.08;51.62
40708;BME280;26392;42.696;23.350;2023-03-12T08:48:27;94925.28;;;4.00;50.87
40708;BME280;26392;42.696;23.350;2023-03-12T08:50:54;94919.16;;;3.93;51.11
40708;BME280;26392;42.696;23.350;2023-03-12T08:53:24;94929.66;;;4.01;52.01
40708;BME280;26392;42.696;23.350;2023-03-12T08:55:53;94936.25;;;4.05;52.50
40708;BME280;26392;42.696;23.350;2023-03-12T08:58:19;94956.47;;;3.96;53.27
40708;BME280;26392;42.696;23.350;2023-03-12T09:00:44;94940.78;;;3.86;53.88
40708;BME280;26392;42.696;23.350;2023-03-12T09:03:10;94942.38;;;3.94;55.06
40708;BME280;26392;42.696;23.350;2023-03-12T09:05:39;94946.44;;;4.21;54.27
40708;BME280;26392;42.696;23.350;2023-03-12T09:08:05;94932.19;;;4.33;53.66
40708;BME280;26392;42.696;23.350;2023-03-12T09:10:31;94926.91;;;4.26;53.78
40708;BME280;26392;42.696;23.350;2023-03-12T09:12:57;94936.00;;;4.25;54.54
40708;BME280;26392;42.696;23.350;2023-03-12T09:15:22;94935.34;;;4.30;54.61
40708;BME280;26392;42.696;23.350;2023-03-12T09:17:48;94953.03;;;4.25;53.58
40708;BME280;26392;42.696;23.350;2023-03-12T09:20:14;94943.06;;;4.26;52.08
40708;BME280;26392;42.696;23.350;2023-03-12T09:22:40;94947.03;;;4.23;52.43
40708;BME280;26392;42.696;23.350;2023-03-12T09:25:08;94931.06;;;4.22;52.79
40708;BME280;26392;42.696;23.350;2023-03-12T09:27:44;94937.91;;;4.24;52.97
40708;BME280;26392;42.696;23.350;2023-03-12T09:30:14;94950.94;;;4.46;51.54
40708;BME280;26392;42.696;23.350;2023-03-12T09:32:40;94943.00;;;4.51;51.65
40708;BME280;26392;42.696;23.350;2023-03-12T09:35:06;94941.94;;;4.52;51.84
40708;BME280;26392;42.696;23.350;2023-03-12T09:37:33;94930.22;;;4.58;52.56
40708;BME280;26392;42.696;23.350;2023-03-12T09:39:59;94932.78;;;4.53;52.12
40708;BME280;26392;42.696;23.350;2023-03-12T09:42:49;94940.84;;;4.71;52.44
40708;BME280;26392;42.696;23.350;2023-03-12T09:45:22;94935.16;;;4.80;52.51
40708;BME280;26392;42.696;23.350;2023-03-12T09:47:53;94936.94;;;4.86;53.58
40708;BME280;26392;42.696;23.350;2023-03-12T09:50:29;94925.69;;;5.01;52.82
40708;BME280;26392;42.696;23.350;2023-03-12T09:55:23;94925.63;;;5.07;51.09
40708;BME280;26392;42.696;23.350;2023-03-12T09:57:50;94922.22;;;5.12;49.83
40708;BME280;26392;42.696;23.350;2023-03-12T10:00:21;94933.00;;;5.12;50.10
40708;BME280;26392;42.696;23.350;2023-03-12T10:05:58;94926.34;;;5.14;50.04
40708;BME280;26392;42.696;23.350;2023-03-12T10:08:33;94923.31;;;5.23;50.10
40708;BME280;26392;42.696;23.350;2023-03-12T10:13:48;94912.78;;;5.45;48.36
40708;BME280;26392;42.696;23.350;2023-03-12T10:16:43;94920.69;;;5.58;49.05
40708;BME280;26392;42.696;23.350;2023-03-12T10:24:32;94911.25;;;5.37;47.23
40708;BME280;26392;42.696;23.350;2023-03-12T10:27:10;94916.06;;;5.35;47.68
40708;BME280;26392;42.696;23.350;2023-03-12T10:29:40;94907.50;;;5.50;47.97
40708;BME280;26392;42.696;23.350;2023-03-12T10:34:57;94921.63;;;5.75;46.55
40708;BME280;26392;42.696;23.350;2023-03-12T10:37:33;94935.50;;;5.79;46.76
40708;BME280;26392;42.696;23.350;2023-03-12T10:40:02;94923.84;;;5.78;46.97
40708;BME280;26392;42.696;23.350;2023-03-12T10:42:30;94920.81;;;5.75;46.69
40708;BME280;26392;42.696;23.350;2023-03-12T10:45:12;94916.34;;;5.69;46.76
40708;BME280;26392;42.696;23.350;2023-03-12T10:47:42;94934.66;;;5.90;46.58
40708;BME280;26392;42.696;23.350;2023-03-12T10:52:42;94939.50;;;6.23;47.17
40708;BME280;26392;42.696;23.350;2023-03-12T10:55:23;94916.34;;;6.16;46.76
40708;BME280;26392;42.696;23.350;2023-03-12T10:57:50;94907.38;;;6.27;46.85
40708;BME280;26392;42.696;23.350;2023-03-12T11:00:22;94901.50;;;6.30;46.08
40708;BME280;26392;42.696;23.350;2023-03-12T11:03:19;94917.59;;;6.48;46.64
40708;BME280;26392;42.696;23.350;2023-03-12T11:05:48;94920.44;;;6.42;47.17
40708;BME280;26392;42.696;23.350;2023-03-12T11:08:31;94919.25;;;6.38;47.08
40708;BME280;26392;42.696;23.350;2023-03-12T11:11:00;94910.53;;;6.47;47.07
40708;BME280;26392;42.696;23.350;2023-03-12T11:13:35;94906.59;;;6.55;46.80
40708;BME280;26392;42.696;23.350;2023-03-12T11:16:24;94906.16;;;6.46;45.64
40708;BME280;26392;42.696;23.350;2023-03-12T11:21:24;94901.34;;;6.48;45.86
40708;BME280;26392;42.696;23.350;2023-03-12T11:26:23;94898.53;;;6.84;46.03
40708;BME280;26392;42.696;23.350;2023-03-12T11:28:52;94904.84;;;7.18;45.13
40708;BME280;26392;42.696;23.350;2023-03-12T11:31:54;94899.78;;;7.55;44.10
40708;BME280;26392;42.696;23.350;2023-03-12T11:34:26;94896.66;;;7.80;42.95
40708;BME280;26392;42.696;23.350;2023-03-12T11:39:34;94903.13;;;8.52;41.21
40708;BME280;26392;42.696;23.350;2023-03-12T11:44:47;94900.06;;;8.70;40.87
40708;BME280;26392;42.696;23.350;2023-03-12T11:50:20;94888.69;;;8.95;41.59
40708;BME280;26392;42.696;23.350;2023-03-12T12:01:04;94885.44;;;8.71;40.40
40708;BME280;26392;42.696;23.350;2023-03-12T12:06:27;94881.97;;;9.03;40.09
40708;BME280;26392;42.696;23.350;2023-03-12T12:09:18;94898.00;;;8.56;39.84
40708;BME280;26392;42.696;23.350;2023-03-12T12:12:15;94895.91;;;8.41;41.69
40708;BME280;26392;42.696;23.350;2023-03-12T12:14:59;94888.16;;;8.49;40.98
40708;BME280;26392;42.696;23.350;2023-03-12T12:17:40;94891.63;;;8.45;41.10
40708;BME280;26392;42.696;23.350;2023-03-12T12:22:57;94893.34;;;7.95;42.51
40708;BME280;26392;42.696;23.350;2023-03-12T12:26:18;94893.03;;;7.75;43.34
40708;BME280;26392;42.696;23.350;2023-03-12T12:31:29;94893.94;;;7.47;43.62
40708;BME280;26392;42.696;23.350;2023-03-12T12:36:50;94890.00;;;7.37;44.04
40708;BME280;26392;42.696;23.350;2023-03-12T12:41:52;94894.25;;;7.50;43.99
40708;BME280;26392;42.696;23.350;2023-03-12T12:44:25;94890.41;;;7.80;43.79
40708;BME280;26392;42.696;23.350;2023-03-12T12:47:00;94891.09;;;8.09;43.28
40708;BME280;26392;42.696;23.350;2023-03-12T12:49:47;94885.38;;;8.27;42.17
40708;BME280;26392;42.696;23.350;2023-03-12T12:52:19;94877.31;;;8.33;42.06
40708;BME280;26392;42.696;23.350;2023-03-12T12:57:36;94884.84;;;8.08;42.69
40708;BME280;26392;42.696;23.350;2023-03-12T13:02:56;94887.19;;;7.83;43.50
40708;BME280;26392;42.696;23.350;2023-03-12T13:05:28;94893.22;;;7.68;43.90
40708;BME280;26392;42.696;23.350;2023-03-12T13:08:05;94895.44;;;7.71;46.41
40708;BME280;26392;42.696;23.350;2023-03-12T13:13:01;94907.59;;;7.52;43.81
40708;BME280;26392;42.696;23.350;2023-03-12T13:18:03;94893.22;;;7.68;43.13
40708;BME280;26392;42.696;23.350;2023-03-12T13:20:41;94896.06;;;7.78;42.97
40708;BME280;26392;42.696;23.350;2023-03-12T13:29:35;94899.53;;;7.91;43.03
40708;BME280;26392;42.696;23.350;2023-03-12T13:32:01;94902.81;;;7.93;42.70
40708;BME280;26392;42.696;23.350;2023-03-12T13:37:01;94902.44;;;8.06;43.14
40708;BME280;26392;42.696;23.350;2023-03-12T13:39:33;94916.06;;;8.28;42.88
40708;BME280;26392;42.696;23.350;2023-03-12T13:41:59;94914.63;;;7.87;42.53
40708;BME280;26392;42.696;23.350;2023-03-12T13:49:51;94906.28;;;7.71;43.28
40708;BME280;26392;42.696;23.350;2023-03-12T13:52:32;94909.78;;;7.89;43.51
40708;BME280;26392;42.696;23.350;2023-03-12T14:00:03;94903.09;;;8.13;42.62
40708;BME280;26392;42.696;23.350;2023-03-12T14:02:33;94907.34;;;8.26;42.47
40708;BME280;26392;42.696;23.350;2023-03-12T14:05:09;94920.44;;;8.12;42.49
40708;BME280;26392;42.696;23.350;2023-03-12T14:08:34;94911.84;;;7.98;42.11
40708;BME280;26392;42.696;23.350;2023-03-12T14:11:02;94916.53;;;7.69;42.68
40708;BME280;26392;42.696;23.350;2023-03-12T14:19:12;94932.31;;;7.55;42.97
40708;BME280;26392;42.696;23.350;2023-03-12T14:21:40;94915.13;;;7.50;43.40
40708;BME280;26392;42.696;23.350;2023-03-12T14:26:46;94927.63;;;7.51;43.50
40708;BME280;26392;42.696;23.350;2023-03-12T14:29:27;94928.28;;;7.58;43.71
40708;BME280;26392;42.696;23.350;2023-03-12T14:31:56;94933.88;;;7.68;43.25
40708;BME280;26392;42.696;23.350;2023-03-12T14:34:25;94931.59;;;7.77;42.13
40708;BME280;26392;42.696;23.350;2023-03-12T14:37:14;94930.91;;;7.70;42.54
40708;BME280;26392;42.696;23.350;2023-03-12T14:39:43;94930.69;;;7.54;42.83
40708;BME280;26392;42.696;23.350;2023-03-12T14:42:19;94936.09;;;7.54;42.58
40708;BME280;26392;42.696;23.350;2023-03-12T14:44:53;94929.09;;;7.42;42.65
40708;BME280;26392;42.696;23.350;2023-03-12T14:47:19;94940.16;;;7.23;43.57